createdAt,value
2022-08-05T00:01:28.124Z,15.50
2022-08-05T00:06:33.398Z,15.80
2022-08-05T00:11:48.415Z,15.90
2022-08-05T00:16:53.343Z,15.20
2022-08-05T00:21:56.623Z,14.80
2022-08-05T00:27:00.393Z,14.70
2022-08-05T00:32:13.039Z,14.80
2022-08-05T00:37:17.730Z,15.10
2022-08-05T00:42:34.714Z,15.40
2022-08-05T00:47:56.601Z,15.60
2022-08-05T00:53:00.096Z,15.70
2022-08-05T00:58:02.829Z,15.90
2022-08-05T01:03:07.726Z,15.80
2022-08-05T01:08:30.267Z,15.80
2022-08-05T01:13:58.347Z,16.10
2022-08-05T01:19:16.234Z,17.20
2022-08-05T01:24:35.697Z,16.30
2022-08-05T01:29:45.652Z,16.30
2022-08-05T01:35:00.772Z,16.10
2022-08-05T01:40:05.397Z,16.10
2022-08-05T01:45:08.943Z,16.10
2022-08-05T01:50:19.109Z,16.10
2022-08-05T01:55:36.295Z,16.00
2022-08-05T02:00:44.438Z,16.00
2022-08-05T02:05:47.688Z,16.00
2022-08-05T02:10:56.259Z,15.90
2022-08-05T02:16:04.306Z,15.40
2022-08-05T02:21:14.845Z,15.20
2022-08-05T02:26:26.501Z,15.30
2022-08-05T02:31:34.585Z,15.50
2022-08-05T02:36:45.875Z,15.50
2022-08-05T02:42:01.335Z,15.60
2022-08-05T02:47:10.234Z,14.90
2022-08-05T02:52:29.354Z,14.20
2022-08-05T02:58:10.072Z,13.90
2022-08-05T03:02:58.797Z,13.90
2022-08-05T03:08:08.945Z,14.40
2022-08-05T03:13:17.089Z,14.80
2022-08-05T03:18:24.630Z,14.80
2022-08-05T03:23:34.072Z,14.70
2022-08-05T03:28:37.815Z,15.00
2022-08-05T03:33:52.892Z,14.40
2022-08-05T03:38:55.850Z,14.40
2022-08-05T03:44:10.185Z,15.00
2022-08-05T03:49:14.974Z,15.70
2022-08-05T03:55:50.631Z,16.80
2022-08-05T04:00:01.652Z,17.40
2022-08-05T04:05:05.755Z,18.20
2022-08-05T04:10:12.434Z,18.80
2022-08-05T04:15:20.440Z,19.60
2022-08-05T04:20:27.137Z,20.00
2022-08-05T04:25:57.899Z,20.40
2022-08-05T04:30:52.041Z,21.00
2022-08-05T04:36:15.640Z,21.80
2022-08-05T04:41:17.559Z,22.40
2022-08-05T04:46:28.258Z,23.40
2022-08-05T04:51:32.573Z,24.00
2022-08-05T04:56:37.563Z,24.40
2022-08-05T05:02:07.733Z,25.00
2022-08-05T05:07:02.637Z,25.60
2022-08-05T05:12:06.146Z,25.90
2022-08-05T05:17:09.614Z,25.90
2022-08-05T05:22:22.789Z,26.20
2022-08-05T05:27:41.699Z,26.50
2022-08-05T05:32:48.793Z,26.70
2022-08-05T05:38:01.383Z,26.50
2022-08-05T05:43:04.972Z,26.90
2022-08-05T05:48:11.693Z,27.10
2022-08-05T05:53:22.308Z,27.60
2022-08-05T05:58:30.402Z,27.90
2022-08-05T06:03:53.781Z,27.70
2022-08-05T06:08:59.891Z,25.70
2022-08-05T06:14:02.953Z,24.60
2022-08-05T06:19:07.477Z,24.40
2022-08-05T06:24:12.082Z,24.50
2022-08-05T06:29:46.908Z,24.40
2022-08-05T06:34:37.954Z,24.60
2022-08-05T06:39:41.630Z,24.90
2022-08-05T06:44:44.258Z,25.30
2022-08-05T06:50:01.853Z,25.30
2022-08-05T06:55:05.672Z,25.40
2022-08-05T07:00:09.697Z,25.50
2022-08-05T07:05:15.336Z,25.70
2022-08-05T07:10:22.420Z,25.80
2022-08-05T07:16:01.159Z,26.00
2022-08-05T07:21:07.647Z,26.10
2022-08-05T07:26:13.983Z,26.00
2022-08-05T07:31:17.576Z,26.00
2022-08-05T07:36:21.762Z,26.10
2022-08-05T07:42:07.943Z,26.40
2022-08-05T07:46:50.295Z,26.40
2022-08-05T07:51:55.083Z,26.60
2022-08-05T07:57:02.103Z,26.70
2022-08-05T08:02:26.400Z,26.70
2022-08-05T08:07:39.787Z,26.70
2022-08-05T08:12:56.073Z,26.90
2022-08-05T08:18:01.942Z,27.20
2022-08-05T08:23:05.048Z,27.20
2022-08-05T08:28:11.409Z,27.20
2022-08-05T08:33:21.560Z,27.40
2022-08-05T08:38:35.969Z,27.50
2022-08-05T08:45:19.193Z,27.60
2022-08-05T08:50:07.799Z,28.00
2022-08-05T08:54:29.285Z,28.20
2022-08-05T08:59:33.773Z,28.10
2022-08-05T09:04:58.127Z,28.10
2022-08-05T09:10:04.257Z,28.30
2022-08-05T09:15:08.363Z,28.20
2022-08-05T09:20:12.147Z,28.20
2022-08-05T09:25:24.405Z,28.70
2022-08-05T09:31:23.529Z,28.90
2022-08-05T09:36:59.744Z,28.70
2022-08-05T09:42:07.724Z,28.90
2022-08-05T09:47:14.102Z,29.10
2022-08-05T09:52:31.890Z,29.00
2022-08-05T09:57:45.201Z,29.10
2022-08-05T10:02:58.409Z,29.40
2022-08-05T10:08:35.379Z,29.20
2022-08-05T10:13:47.093Z,29.00
2022-08-05T10:18:51.433Z,29.00
2022-08-05T10:24:00.414Z,29.30
2022-08-05T10:29:03.204Z,29.20
2022-08-05T10:34:10.160Z,29.50
2022-08-05T10:39:25.153Z,29.60
2022-08-05T10:44:45.550Z,29.50
2022-08-05T10:50:32.563Z,29.50
2022-08-05T10:56:05.022Z,29.70
2022-08-05T11:01:15.138Z,29.80
2022-08-05T11:06:18.046Z,30.20
2022-08-05T11:11:44.542Z,30.20
2022-08-05T11:17:57.253Z,29.60
2022-08-05T11:22:53.885Z,30.10
2022-08-05T11:28:17.079Z,30.20
2022-08-05T11:33:46.683Z,30.30
2022-08-05T11:38:57.783Z,29.70
2022-08-05T11:44:08.499Z,29.70
2022-08-05T11:49:13.585Z,29.70
2022-08-05T11:54:33.972Z,30.20
2022-08-05T11:59:49.873Z,30.70
2022-08-05T12:04:59.303Z,30.80
2022-08-05T12:10:09.425Z,30.00
2022-08-05T12:15:37.938Z,30.50
2022-08-05T12:20:41.521Z,30.60
2022-08-05T12:25:56.644Z,30.60
2022-08-05T12:31:02.428Z,29.60
2022-08-05T12:36:08.259Z,30.00
2022-08-05T12:41:16.426Z,30.30
2022-08-05T12:46:29.606Z,30.40
2022-08-05T12:52:13.553Z,31.00
2022-08-05T12:57:15.220Z,31.10
2022-08-05T13:02:30.306Z,31.20
2022-08-05T13:07:59.497Z,31.50
2022-08-05T13:12:58.166Z,31.70
2022-08-05T13:18:01.796Z,31.20
2022-08-05T13:23:07.411Z,31.00
2022-08-05T13:28:10.695Z,30.70
2022-08-05T13:33:14.332Z,30.70
2022-08-05T13:38:38.548Z,31.40
2022-08-05T13:43:54.907Z,31.80
2022-08-05T13:49:00.662Z,31.60
2022-08-05T13:54:12.798Z,31.90
2022-08-05T13:59:20.231Z,31.60
2022-08-05T14:04:42.454Z,31.80
2022-08-05T14:09:53.488Z,31.20
2022-08-05T14:14:56.026Z,31.60
2022-08-05T14:20:04.561Z,31.60
2022-08-05T14:25:19.247Z,31.70
2022-08-05T14:30:26.638Z,31.60
2022-08-05T14:35:37.519Z,31.70
2022-08-05T14:40:52.987Z,30.90
2022-08-05T14:45:55.576Z,30.50
2022-08-05T14:50:58.379Z,31.20
2022-08-05T14:56:03.510Z,31.10
2022-08-05T15:01:16.009Z,31.30
2022-08-05T15:06:18.814Z,31.10
2022-08-05T15:11:50.994Z,31.00
2022-08-05T15:16:56.081Z,30.80
2022-08-05T15:22:01.324Z,30.80
2022-08-05T15:27:04.210Z,30.70
2022-08-05T15:32:11.664Z,31.00
2022-08-05T15:37:15.587Z,30.90
2022-08-05T15:42:54.223Z,30.80
2022-08-05T15:47:44.230Z,30.80
2022-08-05T15:52:53.847Z,30.80
2022-08-05T15:57:57.880Z,30.80
2022-08-05T16:03:00.683Z,30.80
2022-08-05T16:08:03.474Z,30.50
2022-08-05T16:13:07.728Z,30.50
2022-08-05T16:18:12.348Z,30.80
2022-08-05T16:23:17.017Z,30.60
2022-08-05T16:28:19.649Z,30.00
2022-08-05T16:33:22.513Z,30.00
2022-08-05T16:38:29.645Z,29.70
2022-08-05T16:43:34.881Z,29.20
2022-08-05T16:48:38.773Z,29.30
2022-08-05T16:54:02.450Z,29.60
2022-08-05T16:59:09.396Z,29.50
2022-08-05T17:04:11.883Z,29.80
2022-08-05T17:09:17.870Z,30.90
2022-08-05T17:14:34.545Z,30.80
2022-08-05T17:19:43.809Z,30.60
2022-08-05T17:24:57.662Z,30.10
2022-08-05T17:30:02.676Z,29.40
2022-08-05T17:35:06.007Z,28.70
2022-08-05T17:40:12.846Z,27.60
2022-08-05T17:45:20.596Z,26.50
2022-08-05T17:50:28.265Z,26.20
2022-08-05T17:55:37.257Z,26.20
2022-08-05T18:00:45.005Z,26.00
2022-08-05T18:05:53.336Z,25.80
2022-08-05T18:10:56.402Z,25.70
2022-08-05T18:16:20.407Z,25.20
2022-08-05T18:22:07.456Z,24.50
2022-08-05T18:26:57.753Z,23.70
2022-08-05T18:32:00.868Z,23.20
2022-08-05T18:37:05.749Z,22.80
2022-08-05T18:42:15.296Z,22.40
2022-08-05T18:47:17.781Z,22.20
2022-08-05T18:52:36.135Z,21.90
2022-08-05T18:57:43.064Z,21.90
2022-08-05T19:02:46.258Z,22.30
2022-08-05T19:07:50.230Z,22.00
2022-08-05T19:12:53.402Z,22.00
2022-08-05T19:18:09.173Z,22.10
2022-08-05T19:24:03.271Z,21.70
2022-08-05T19:28:42.186Z,21.80
2022-08-05T19:33:55.679Z,21.90
2022-08-05T19:39:00.975Z,21.70
2022-08-05T19:44:13.223Z,21.50
2022-08-05T19:49:17.815Z,21.90
2022-08-05T19:54:26.912Z,22.10
2022-08-05T19:59:55.339Z,21.60
2022-08-05T20:04:59.187Z,21.30
2022-08-05T20:10:13.585Z,21.30
2022-08-05T20:15:22.973Z,21.30
2022-08-05T20:20:48.131Z,21.10
2022-08-05T20:25:52.097Z,21.10
2022-08-05T20:30:55.165Z,21.20
2022-08-05T20:35:57.819Z,21.20
2022-08-05T20:41:00.888Z,21.10
2022-08-05T20:46:07.406Z,21.00
2022-08-05T20:51:09.957Z,21.00
2022-08-05T20:56:12.491Z,20.80
2022-08-05T21:01:15.051Z,20.70
2022-08-05T21:06:27.626Z,20.70
2022-08-05T21:12:07.463Z,21.00
2022-08-05T21:16:53.910Z,21.10
2022-08-05T21:21:56.531Z,20.80
2022-08-05T21:26:59.049Z,20.70
2022-08-05T21:32:04.366Z,20.50
2022-08-05T21:37:08.292Z,21.30
2022-08-05T21:42:30.573Z,22.70
2022-08-05T21:47:56.230Z,23.20
2022-08-05T21:52:58.785Z,22.90
2022-08-05T21:58:02.329Z,23.10
2022-08-05T22:03:09.943Z,23.20
2022-08-05T22:08:22.449Z,23.20
2022-08-05T22:14:06.030Z,23.40
2022-08-05T22:18:49.733Z,23.40
2022-08-05T22:24:39.415Z,23.10
2022-08-05T22:29:35.192Z,23.00
2022-08-05T22:34:37.840Z,23.00
2022-08-05T22:39:40.434Z,23.00
2022-08-05T22:44:48.645Z,22.90
2022-08-05T22:50:20.079Z,22.70
2022-08-05T22:55:25.956Z,22.60
2022-08-05T23:00:29.088Z,22.40
2022-08-05T23:05:36.027Z,22.20
2022-08-05T23:10:39.411Z,22.20
2022-08-05T23:15:42.172Z,22.00
2022-08-05T23:20:45.622Z,21.70
2022-08-05T23:25:51.215Z,21.40
2022-08-05T23:30:56.746Z,21.40
2022-08-05T23:36:19.319Z,21.40
2022-08-05T23:41:21.821Z,21.10
2022-08-05T23:46:24.355Z,20.70
2022-08-05T23:51:26.977Z,20.70
2022-08-05T23:56:31.608Z,20.80
